sensor_id;sensor_type;location;lat;lon;timestamp;pressure;altitude;pressure_sealevel;temperature;humidity
21781;BME280;52576;53.614;9.894;2023-08-21T00:00:23;102030.44;;;16.78;90.62
21781;BME280;52576;53.614;9.894;2023-08-21T00:02:26;102021.78;;;16.76;90.79
21781;BME280;52576;53.614;9.894;2023-08-21T00:04:31;102021.03;;;16.74;90.83
21781;BME280;52576;53.614;9.894;2023-08-21T00:06:33;102013.31;;;16.71;91.01
21781;BME280;52576;53.614;9.894;2023-08-21T00:08:36;102016.91;;;16.70;91.17
21781;BME280;52576;53.614;9.894;2023-08-21T00:10:39;102015.22;;;16.69;91.25
21781;BME280;52576;53.614;9.894;2023-08-21T00:12:42;102026.88;;;16.66;90.97
21781;BME280;52576;53.614;9.894;2023-08-21T00:14:45;102020.84;;;16.64;91.35
21781;BME280;52576;53.614;9.894;2023-08-21T00:16:48;102021.19;;;16.59;91.26
21781;BME280;52576;53.614;9.894;2023-08-21T00:18:50;102019.69;;;16.55;91.53
21781;BME280;52576;53.614;9.894;2023-08-21T00:20:55;102018.13;;;16.53;91.32
21781;BME280;52576;53.614;9.894;2023-08-21T00:22:58;102016.63;;;16.49;91.29
21781;BME280;52576;53.614;9.894;2023-08-21T00:25:01;102025.63;;;16.46;91.82
21781;BME280;52576;53.614;9.894;2023-08-21T00:27:04;102027.66;;;16.43;91.54
21781;BME280;52576;53.614;9.894;2023-08-21T00:29:07;102025.22;;;16.40;91.85
21781;BME280;52576;53.614;9.894;2023-08-21T00:31:10;102020.19;;;16.37;91.88
21781;BME280;52576;53.614;9.894;2023-08-21T00:33:14;102021.25;;;16.34;92.24
21781;BME280;52576;53.614;9.894;2023-08-21T00:35:17;102015.22;;;16.32;92.17
21781;BME280;52576;53.614;9.894;2023-08-21T00:37:22;102027.69;;;16.30;92.29
21781;BME280;52576;53.614;9.894;2023-08-21T00:39:25;102029.59;;;16.28;92.08
21781;BME280;52576;53.614;9.894;2023-08-21T00:41:28;102028.88;;;16.26;92.27
21781;BME280;52576;53.614;9.894;2023-08-21T00:43:31;102029.81;;;16.25;92.37
21781;BME280;52576;53.614;9.894;2023-08-21T00:45:34;102028.13;;;16.24;92.65
21781;BME280;52576;53.614;9.894;2023-08-21T00:47:37;102027.38;;;16.22;92.65
21781;BME280;52576;53.614;9.894;2023-08-21T00:49:40;102028.44;;;16.19;92.73
21781;BME280;52576;53.614;9.894;2023-08-21T00:51:44;102031.19;;;16.18;92.54
21781;BME280;52576;53.614;9.894;2023-08-21T00:53:49;102024.22;;;16.17;92.69
21781;BME280;52576;53.614;9.894;2023-08-21T00:55:54;102019.13;;;16.14;92.63
21781;BME280;52576;53.614;9.894;2023-08-21T00:57:57;102020.09;;;16.13;92.63
21781;BME280;52576;53.614;9.894;2023-08-21T01:00:01;102021.88;;;16.12;92.86
21781;BME280;52576;53.614;9.894;2023-08-21T01:02:06;102027.19;;;16.12;92.76
21781;BME280;52576;53.614;9.894;2023-08-21T01:04:09;102024.66;;;16.11;92.90
21781;BME280;52576;53.614;9.894;2023-08-21T01:06:13;102025.63;;;16.10;93.00
21781;BME280;52576;53.614;9.894;2023-08-21T01:08:21;102026.56;;;16.09;93.20
21781;BME280;52576;53.614;9.894;2023-08-21T01:10:39;102022.34;;;16.06;93.35
21781;BME280;52576;53.614;9.894;2023-08-21T01:12:48;102025.09;;;16.05;93.46
21781;BME280;52576;53.614;9.894;2023-08-21T01:14:57;102027.00;;;16.03;93.40
21781;BME280;52576;53.614;9.894;2023-08-21T01:17:03;102018.31;;;16.01;93.46
21781;BME280;52576;53.614;9.894;2023-08-21T01:19:14;102021.91;;;16.00;93.31
21781;BME280;52576;53.614;9.894;2023-08-21T01:21:21;102024.56;;;16.00;93.44
21781;BME280;52576;53.614;9.894;2023-08-21T01:23:33;102029.09;;;15.98;93.62
21781;BME280;52576;53.614;9.894;2023-08-21T01:25:35;102031.00;;;15.95;93.64
21781;BME280;52576;53.614;9.894;2023-08-21T01:27:42;102031.13;;;15.94;93.42
21781;BME280;52576;53.614;9.894;2023-08-21T01:29:45;102025.94;;;15.92;93.71
21781;BME280;52576;53.614;9.894;2023-08-21T01:31:52;102030.38;;;15.92;93.86
21781;BME280;52576;53.614;9.894;2023-08-21T01:34:04;102031.44;;;15.89;93.44
21781;BME280;52576;53.614;9.894;2023-08-21T01:36:09;102033.34;;;15.87;93.91
21781;BME280;52576;53.614;9.894;2023-08-21T01:38:12;102026.34;;;15.86;93.81
21781;BME280;52576;53.614;9.894;2023-08-21T01:40:21;102029.94;;;15.85;93.62
21781;BME280;52576;53.614;9.894;2023-08-21T01:42:24;102028.28;;;15.84;94.15
21781;BME280;52576;53.614;9.894;2023-08-21T01:44:27;102025.63;;;15.84;94.10
21781;BME280;52576;53.614;9.894;2023-08-21T01:46:30;102028.28;;;15.84;94.14
21781;BME280;52576;53.614;9.894;2023-08-21T01:48:33;102031.03;;;15.83;93.97
21781;BME280;52576;53.614;9.894;2023-08-21T01:50:36;102033.78;;;15.81;94.44
21781;BME280;52576;53.614;9.894;2023-08-21T01:52:39;102042.66;;;15.80;94.33
21781;BME280;52576;53.614;9.894;2023-08-21T01:54:43;102032.28;;;15.77;94.14
21781;BME280;52576;53.614;9.894;2023-08-21T01:56:47;102035.88;;;15.76;94.08
21781;BME280;52576;53.614;9.894;2023-08-21T01:58:51;102026.38;;;15.74;94.14
21781;BME280;52576;53.614;9.894;2023-08-21T02:00:54;102029.97;;;15.73;94.30
21781;BME280;52576;53.614;9.894;2023-08-21T02:02:58;102030.91;;;15.72;94.56
21781;BME280;52576;53.614;9.894;2023-08-21T02:05:01;102032.69;;;15.71;94.21
21781;BME280;52576;53.614;9.894;2023-08-21T02:07:05;102026.66;;;15.69;94.18
21781;BME280;52576;53.614;9.894;2023-08-21T02:09:09;102025.94;;;15.67;94.14
21781;BME280;52576;53.614;9.894;2023-08-21T02:11:12;102026.13;;;15.64;94.21
21781;BME280;52576;53.614;9.894;2023-08-21T02:13:18;102040.31;;;15.63;94.14
21781;BME280;52576;53.614;9.894;2023-08-21T02:15:21;102036.91;;;15.61;94.58
21781;BME280;52576;53.614;9.894;2023-08-21T02:17:26;102035.22;;;15.60;94.82
21781;BME280;52576;53.614;9.894;2023-08-21T02:19:29;102038.84;;;15.59;94.45
21781;BME280;52576;53.614;9.894;2023-08-21T02:21:34;102042.44;;;15.58;94.64
21781;BME280;52576;53.614;9.894;2023-08-21T02:23:38;102041.59;;;15.57;95.03
21781;BME280;52576;53.614;9.894;2023-08-21T02:25:42;102036.31;;;15.57;94.81
21781;BME280;52576;53.614;9.894;2023-08-21T02:27:45;102036.47;;;15.54;94.97
21781;BME280;52576;53.614;9.894;2023-08-21T02:29:49;102035.63;;;15.54;94.58
21781;BME280;52576;53.614;9.894;2023-08-21T02:31:52;102029.50;;;15.53;94.68
21781;BME280;52576;53.614;9.894;2023-08-21T02:33:56;102031.28;;;15.53;95.09
21781;BME280;52576;53.614;9.894;2023-08-21T02:35:59;102039.22;;;15.53;95.21
21781;BME280;52576;53.614;9.894;2023-08-21T02:38:04;102042.72;;;15.53;95.11
21781;BME280;52576;53.614;9.894;2023-08-21T02:40:10;102048.00;;;15.53;95.01
21781;BME280;52576;53.614;9.894;2023-08-21T02:42:13;102043.56;;;15.54;95.12
21781;BME280;52576;53.614;9.894;2023-08-21T02:44:17;102042.72;;;15.53;95.18
21781;BME280;52576;53.614;9.894;2023-08-21T02:46:23;102044.34;;;15.56;95.17
21781;BME280;52576;53.614;9.894;2023-08-21T02:48:26;102046.88;;;15.57;95.56
21781;BME280;52576;53.614;9.894;2023-08-21T02:50:29;102044.94;;;15.59;95.49
21781;BME280;52576;53.614;9.894;2023-08-21T02:52:32;102051.06;;;15.60;95.79
21781;BME280;52576;53.614;9.894;2023-08-21T02:54:36;102048.34;;;15.61;95.65
21781;BME280;52576;53.614;9.894;2023-08-21T02:56:39;102050.03;;;15.63;96.04
21781;BME280;52576;53.614;9.894;2023-08-21T02:58:42;102048.22;;;15.63;95.89
21781;BME280;52576;53.614;9.894;2023-08-21T03:00:45;102051.72;;;15.64;95.84
21781;BME280;52576;53.614;9.894;2023-08-21T03:02:49;102054.25;;;15.65;96.27
21781;BME280;52576;53.614;9.894;2023-08-21T03:04:52;102048.97;;;15.65;95.73
21781;BME280;52576;53.614;9.894;2023-08-21T03:06:54;102046.34;;;15.65;96.15
21781;BME280;52576;53.614;9.894;2023-08-21T03:08:57;102054.25;;;15.65;96.06
21781;BME280;52576;53.614;9.894;2023-08-21T03:11:01;102055.94;;;15.66;96.04
21781;BME280;52576;53.614;9.894;2023-08-21T03:13:04;102055.94;;;15.66;96.15
21781;BME280;52576;53.614;9.894;2023-08-21T03:15:07;102053.31;;;15.66;95.92
21781;BME280;52576;53.614;9.894;2023-08-21T03:17:10;102051.41;;;15.68;96.12
21781;BME280;52576;53.614;9.894;2023-08-21T03:19:15;102050.47;;;15.69;96.29
21781;BME280;52576;53.614;9.894;2023-08-21T03:21:18;102041.59;;;15.70;96.16
21781;BME280;52576;53.614;9.894;2023-08-21T03:23:21;102048.56;;;15.71;96.01
21781;BME280;52576;53.614;9.894;2023-08-21T03:25:24;102049.50;;;15.70;95.82
21781;BME280;52576;53.614;9.894;2023-08-21T03:27:28;102047.81;;;15.69;96.00
21781;BME280;52576;53.614;9.894;2023-08-21T03:29:31;102049.63;;;15.69;96.17
21781;BME280;52576;53.614;9.894;2023-08-21T03:31:35;102054.06;;;15.68;95.96
21781;BME280;52576;53.614;9.894;2023-08-21T03:33:38;102048.78;;;15.68;95.97
21781;BME280;52576;53.614;9.894;2023-08-21T03:35:42;102048.78;;;15.68;96.16
21781;BME280;52576;53.614;9.894;2023-08-21T03:37:45;102053.31;;;15.66;95.96
21781;BME280;52576;53.614;9.894;2023-08-21T03:39:49;102049.81;;;15.66;96.07
21781;BME280;52576;53.614;9.894;2023-08-21T03:41:53;102048.13;;;15.65;96.04
21781;BME280;52576;53.614;9.894;2023-08-21T03:43:58;102051.63;;;15.65;96.18
21781;BME280;52576;53.614;9.894;2023-08-21T03:46:01;102042.84;;;15.65;96.10
21781;BME280;52576;53.614;9.894;2023-08-21T03:48:04;102050.66;;;15.66;96.36
21781;BME280;52576;53.614;9.894;2023-08-21T03:50:07;102059.34;;;15.68;96.03
21781;BME280;52576;53.614;9.894;2023-08-21T03:52:12;102057.53;;;15.69;96.30
21781;BME280;52576;53.614;9.894;2023-08-21T03:54:16;102050.47;;;15.69;96.31
21781;BME280;52576;53.614;9.894;2023-08-21T03:56:18;102045.19;;;15.69;96.07
21781;BME280;52576;53.614;9.894;2023-08-21T03:58:21;102048.56;;;15.71;96.13
21781;BME280;52576;53.614;9.894;2023-08-21T04:00:24;102044.13;;;15.72;96.51
21781;BME280;52576;53.614;9.894;2023-08-21T04:02:27;102046.88;;;15.70;96.37
21781;BME280;52576;53.614;9.894;2023-08-21T04:04:30;102041.59;;;15.70;96.01
21781;BME280;52576;53.614;9.894;2023-08-21T04:06:33;102044.22;;;15.70;96.16
21781;BME280;52576;53.614;9.894;2023-08-21T04:08:38;102048.78;;;15.68;95.89
21781;BME280;52576;53.614;9.894;2023-08-21T04:10:42;102052.38;;;15.67;96.00
21781;BME280;52576;53.614;9.894;2023-08-21T04:12:44;102054.25;;;15.65;96.14
21781;BME280;52576;53.614;9.894;2023-08-21T04:14:47;102051.63;;;15.65;96.00
21781;BME280;52576;53.614;9.894;2023-08-21T04:16:50;102056.16;;;15.63;96.01
21781;BME280;52576;53.614;9.894;2023-08-21T04:18:54;102048.22;;;15.63;95.87
21781;BME280;52576;53.614;9.894;2023-08-21T04:20:57;102049.19;;;15.62;95.97
21781;BME280;52576;53.614;9.894;2023-08-21T04:23:00;102052.78;;;15.61;96.15
21781;BME280;52576;53.614;9.894;2023-08-21T04:25:05;102053.63;;;15.61;96.33
21781;BME280;52576;53.614;9.894;2023-08-21T04:27:08;102061.66;;;15.60;96.27
21781;BME280;52576;53.614;9.894;2023-08-21T04:29:11;102063.34;;;15.61;96.39
21781;BME280;52576;53.614;9.894;2023-08-21T04:31:14;102054.47;;;15.62;96.22
21781;BME280;52576;53.614;9.894;2023-08-21T04:33:19;102059.75;;;15.62;96.60
21781;BME280;52576;53.614;9.894;2023-08-21T04:35:22;102057.84;;;15.64;96.51
21781;BME280;52576;53.614;9.894;2023-08-21T04:37:25;102059.53;;;15.65;96.60
21781;BME280;52576;53.614;9.894;2023-08-21T04:39:29;102061.25;;;15.66;96.40
21781;BME280;52576;53.614;9.894;2023-08-21T04:41:34;102057.66;;;15.67;96.40
21781;BME280;52576;53.614;9.894;2023-08-21T04:43:37;102058.41;;;15.69;96.81
21781;BME280;52576;53.614;9.894;2023-08-21T04:45:47;102059.13;;;15.71;96.42
21781;BME280;52576;53.614;9.894;2023-08-21T04:47:51;102060.84;;;15.72;96.58
21781;BME280;52576;53.614;9.894;2023-08-21T04:49:58;102059.88;;;15.73;96.76
21781;BME280;52576;53.614;9.894;2023-08-21T04:52:03;102065.91;;;15.75;96.35
21781;BME280;52576;53.614;9.894;2023-08-21T04:54:06;102068.47;;;15.77;96.63
21781;BME280;52576;53.614;9.894;2023-08-21T04:56:09;102065.91;;;15.75;96.42
21781;BME280;52576;53.614;9.894;2023-08-21T04:58:14;102064.00;;;15.77;96.50
21781;BME280;52576;53.614;9.894;2023-08-21T05:00:18;102065.72;;;15.78;96.53
21781;BME280;52576;53.614;9.894;2023-08-21T05:02:21;102063.81;;;15.80;96.45
21781;BME280;52576;53.614;9.894;2023-08-21T05:04:26;102068.03;;;15.83;96.81
21781;BME280;52576;53.614;9.894;2023-08-21T05:06:30;102066.97;;;15.85;96.68
21781;BME280;52576;53.614;9.894;2023-08-21T05:08:33;102064.22;;;15.87;96.57
21781;BME280;52576;53.614;9.894;2023-08-21T05:10:39;102072.78;;;15.90;96.40
21781;BME280;52576;53.614;9.894;2023-08-21T05:12:42;102074.38;;;15.93;96.64
21781;BME280;52576;53.614;9.894;2023-08-21T05:14:47;102075.00;;;15.97;96.74
21781;BME280;52576;53.614;9.894;2023-08-21T05:16:50;102069.53;;;16.00;96.70
21781;BME280;52576;53.614;9.894;2023-08-21T05:18:54;102060.44;;;16.04;96.64
21781;BME280;52576;53.614;9.894;2023-08-21T05:20:58;102061.06;;;16.07;96.56
21781;BME280;52576;53.614;9.894;2023-08-21T05:23:02;102058.06;;;16.12;96.65
21781;BME280;52576;53.614;9.894;2023-08-21T05:25:07;102063.16;;;16.15;96.75
21781;BME280;52576;53.614;9.894;2023-08-21T05:27:11;102066.44;;;16.18;96.66
21781;BME280;52576;53.614;9.894;2023-08-21T05:29:14;102065.28;;;16.22;96.68
21781;BME280;52576;53.614;9.894;2023-08-21T05:31:19;102067.59;;;16.27;96.31
21781;BME280;52576;53.614;9.894;2023-08-21T05:33:27;102063.78;;;16.31;96.44
21781;BME280;52576;53.614;9.894;2023-08-21T05:35:34;102067.06;;;16.35;96.58
21781;BME280;52576;53.614;9.894;2023-08-21T05:37:38;102069.38;;;16.39;96.68
21781;BME280;52576;53.614;9.894;2023-08-21T05:39:42;102076.03;;;16.45;96.19
21781;BME280;52576;53.614;9.894;2023-08-21T05:41:45;102072.22;;;16.49;96.60
21781;BME280;52576;53.614;9.894;2023-08-21T05:43:49;102073.69;;;16.53;96.30
21781;BME280;52576;53.614;9.894;2023-08-21T05:45:52;102069.78;;;16.58;96.50
21781;BME280;52576;53.614;9.894;2023-08-21T05:47:57;102065.00;;;16.63;95.84
21781;BME280;52576;53.614;9.894;2023-08-21T05:50:00;102071.78;;;16.68;95.99
21781;BME280;52576;53.614;9.894;2023-08-21T05:52:04;102074.00;;;16.74;96.27
21781;BME280;52576;53.614;9.894;2023-08-21T05:54:07;102074.41;;;16.80;95.82
21781;BME280;52576;53.614;9.894;2023-08-21T05:56:13;102077.56;;;16.85;95.97
21781;BME280;52576;53.614;9.894;2023-08-21T05:58:16;102078.78;;;16.92;95.78
21781;BME280;52576;53.614;9.894;2023-08-21T06:00:19;102079.31;;;16.98;95.30
21781;BME280;52576;53.614;9.894;2023-08-21T06:02:22;102077.16;;;17.03;95.20
21781;BME280;52576;53.614;9.894;2023-08-21T06:04:25;102081.28;;;17.07;95.19
21781;BME280;52576;53.614;9.894;2023-08-21T06:06:33;102084.34;;;17.13;94.96
21781;BME280;52576;53.614;9.894;2023-08-21T06:08:36;102087.47;;;17.18;94.42
21781;BME280;52576;53.614;9.894;2023-08-21T06:10:40;102086.28;;;17.22;94.04
21781;BME280;52576;53.614;9.894;2023-08-21T06:12:43;102094.00;;;17.25;93.76
21781;BME280;52576;53.614;9.894;2023-08-21T06:14:46;102084.88;;;17.29;93.49
21781;BME280;52576;53.614;9.894;2023-08-21T06:16:50;102092.50;;;17.34;93.79
21781;BME280;52576;53.614;9.894;2023-08-21T06:18:53;102094.81;;;17.39;93.66
21781;BME280;52576;53.614;9.894;2023-08-21T06:20:57;102091.78;;;17.43;93.39
21781;BME280;52576;53.614;9.894;2023-08-21T06:23:00;102088.81;;;17.48;93.12
21781;BME280;52576;53.614;9.894;2023-08-21T06:25:04;102090.28;;;17.52;92.90
21781;BME280;52576;53.614;9.894;2023-08-21T06:27:08;102091.72;;;17.56;92.63
21781;BME280;52576;53.614;9.894;2023-08-21T06:29:12;102094.88;;;17.61;92.21
21781;BME280;52576;53.614;9.894;2023-08-21T06:31:16;102094.66;;;17.64;91.79
21781;BME280;52576;53.614;9.894;2023-08-21T06:33:20;102091.56;;;17.70;91.64
21781;BME280;52576;53.614;9.894;2023-08-21T06:35:23;102100.00;;;17.75;91.66
21781;BME280;52576;53.614;9.894;2023-08-21T06:37:29;102093.50;;;17.79;91.12
21781;BME280;52576;53.614;9.894;2023-08-21T06:39:33;102099.31;;;17.84;90.88
21781;BME280;52576;53.614;9.894;2023-08-21T06:41:36;102103.44;;;17.88;90.41
21781;BME280;52576;53.614;9.894;2023-08-21T06:43:40;102102.25;;;17.92;90.13
21781;BME280;52576;53.614;9.894;2023-08-21T06:45:48;102098.38;;;17.96;89.98
21781;BME280;52576;53.614;9.894;2023-08-21T06:47:51;102099.94;;;17.99;89.57
21781;BME280;52576;53.614;9.894;2023-08-21T06:49:55;102103.19;;;18.03;89.47
21781;BME280;52576;53.614;9.894;2023-08-21T06:51:58;102101.03;;;18.08;89.23
21781;BME280;52576;53.614;9.894;2023-08-21T06:54:03;102102.38;;;18.13;89.18
21781;BME280;52576;53.614;9.894;2023-08-21T06:56:07;102106.38;;;18.19;88.71
21781;BME280;52576;53.614;9.894;2023-08-21T06:58:10;102100.56;;;18.25;88.55
21781;BME280;52576;53.614;9.894;2023-08-21T07:00:14;102101.19;;;18.28;88.06
21781;BME280;52576;53.614;9.894;2023-08-21T07:02:16;102100.09;;;18.31;88.12
21781;BME280;52576;53.614;9.894;2023-08-21T07:04:19;102100.69;;;18.35;87.77
21781;BME280;52576;53.614;9.894;2023-08-21T07:06:23;102105.53;;;18.41;87.29
21781;BME280;52576;53.614;9.894;2023-08-21T07:08:27;102105.03;;;18.47;87.38
21781;BME280;52576;53.614;9.894;2023-08-21T07:10:35;102114.22;;;18.54;86.57
21781;BME280;52576;53.614;9.894;2023-08-21T07:12:38;102106.84;;;18.57;86.02
21781;BME280;52576;53.614;9.894;2023-08-21T07:14:41;102110.03;;;18.62;85.72
21781;BME280;52576;53.614;9.894;2023-08-21T07:16:45;102109.66;;;18.67;85.82
21781;BME280;52576;53.614;9.894;2023-08-21T07:18:48;102106.50;;;18.73;85.25
21781;BME280;52576;53.614;9.894;2023-08-21T07:20:52;102103.47;;;18.78;84.64
21781;BME280;52576;53.614;9.894;2023-08-21T07:22:55;102101.19;;;18.84;83.78
21781;BME280;52576;53.614;9.894;2023-08-21T07:24:58;102106.13;;;18.89;83.57
21781;BME280;52576;53.614;9.894;2023-08-21T07:27:03;102096.69;;;18.96;82.69
21781;BME280;52576;53.614;9.894;2023-08-21T07:29:06;102107.03;;;18.99;82.59
21781;BME280;52576;53.614;9.894;2023-08-21T07:31:09;102104.03;;;19.04;82.02
21781;BME280;52576;53.614;9.894;2023-08-21T07:33:12;102109.69;;;19.10;82.35
21781;BME280;52576;53.614;9.894;2023-08-21T07:35:16;102101.34;;;19.15;82.22
21781;BME280;52576;53.614;9.894;2023-08-21T07:37:19;102112.44;;;19.20;82.05
21781;BME280;52576;53.614;9.894;2023-08-21T07:39:22;102111.34;;;19.22;81.40
21781;BME280;52576;53.614;9.894;2023-08-21T07:41:25;102111.78;;;19.27;80.79
21781;BME280;52576;53.614;9.894;2023-08-21T07:43:30;102111.28;;;19.33;80.00
21781;BME280;52576;53.614;9.894;2023-08-21T07:45:33;102111.75;;;19.39;79.84
21781;BME280;52576;53.614;9.894;2023-08-21T07:47:36;102116.47;;;19.46;79.83
21781;BME280;52576;53.614;9.894;2023-08-21T07:49:39;102113.41;;;19.51;78.98
21781;BME280;52576;53.614;9.894;2023-08-21T07:51:42;102119.34;;;19.54;77.88
21781;BME280;52576;53.614;9.894;2023-08-21T07:53:45;102117.25;;;19.58;77.25
21781;BME280;52576;53.614;9.894;2023-08-21T07:55:48;102116.03;;;19.62;76.58
21781;BME280;52576;53.614;9.894;2023-08-21T07:57:51;102109.38;;;19.68;76.29
21781;BME280;52576;53.614;9.894;2023-08-21T07:59:56;102115.16;;;19.73;75.59
21781;BME280;52576;53.614;9.894;2023-08-21T08:01:59;102115.59;;;19.78;75.07
21781;BME280;52576;53.614;9.894;2023-08-21T08:04:02;102108.91;;;19.83;74.66
21781;BME280;52576;53.614;9.894;2023-08-21T08:06:05;102112.63;;;19.92;74.30
21781;BME280;52576;53.614;9.894;2023-08-21T08:08:09;102113.66;;;20.01;72.91
21781;BME280;52576;53.614;9.894;2023-08-21T08:10:12;102106.81;;;20.08;73.21
21781;BME280;52576;53.614;9.894;2023-08-21T08:12:15;102109.09;;;20.12;73.05
21781;BME280;52576;53.614;9.894;2023-08-21T08:14:26;102107.84;;;20.16;72.69
21781;BME280;52576;53.614;9.894;2023-08-21T08:16:29;102111.94;;;20.20;71.83
21781;BME280;52576;53.614;9.894;2023-08-21T08:18:32;102112.53;;;20.24;72.10
21781;BME280;52576;53.614;9.894;2023-08-21T08:20:35;102108.03;;;20.24;71.78
21781;BME280;52576;53.614;9.894;2023-08-21T08:22:39;102101.56;;;20.27;71.03
21781;BME280;52576;53.614;9.894;2023-08-21T08:24:42;102115.47;;;20.30;70.67
21781;BME280;52576;53.614;9.894;2023-08-21T08:26:45;102112.53;;;20.33;70.27
21781;BME280;52576;53.614;9.894;2023-08-21T08:28:48;102109.75;;;20.35;68.67
21781;BME280;52576;53.614;9.894;2023-08-21T08:30:52;102109.53;;;20.38;67.74
21781;BME280;52576;53.614;9.894;2023-08-21T08:32:56;102112.19;;;20.38;67.57
21781;BME280;52576;53.614;9.894;2023-08-21T08:34:59;102110.09;;;20.42;67.14
21781;BME280;52576;53.614;9.894;2023-08-21T08:37:02;102109.00;;;20.44;67.32
21781;BME280;52576;53.614;9.894;2023-08-21T08:39:05;102114.91;;;20.48;67.30
21781;BME280;52576;53.614;9.894;2023-08-21T08:41:24;102112.81;;;20.51;67.46
21781;BME280;52576;53.614;9.894;2023-08-21T08:43:30;102121.22;;;20.56;67.28
21781;BME280;52576;53.614;9.894;2023-08-21T08:45:36;102121.66;;;20.61;67.25
21781;BME280;52576;53.614;9.894;2023-08-21T08:47:41;102110.47;;;20.67;67.06
21781;BME280;52576;53.614;9.894;2023-08-21T08:49:46;102117.94;;;20.74;66.25
21781;BME280;52576;53.614;9.894;2023-08-21T08:51:51;102112.19;;;20.78;66.24
21781;BME280;52576;53.614;9.894;2023-08-21T08:53:55;102108.84;;;20.86;66.37
21781;BME280;52576;53.614;9.894;2023-08-21T08:56:01;102109.28;;;20.91;66.44
21781;BME280;52576;53.614;9.894;2023-08-21T08:58:04;102122.06;;;20.97;66.19
21781;BME280;52576;53.614;9.894;2023-08-21T09:00:08;102112.66;;;21.03;65.74
21781;BME280;52576;53.614;9.894;2023-08-21T09:02:11;102105.22;;;21.06;65.76
21781;BME280;52576;53.614;9.894;2023-08-21T09:04:16;102113.66;;;21.11;64.92
21781;BME280;52576;53.614;9.894;2023-08-21T09:06:19;102117.72;;;21.15;63.95
21781;BME280;52576;53.614;9.894;2023-08-21T09:08:22;102120.13;;;21.18;63.63
21781;BME280;52576;53.614;9.894;2023-08-21T09:10:25;102115.38;;;21.22;63.74
21781;BME280;52576;53.614;9.894;2023-08-21T09:12:31;102122.97;;;21.26;63.21
21781;BME280;52576;53.614;9.894;2023-08-21T09:14:34;102120.03;;;21.29;62.88
21781;BME280;52576;53.614;9.894;2023-08-21T09:16:38;102122.41;;;21.32;62.87
21781;BME280;52576;53.614;9.894;2023-08-21T09:18:46;102119.31;;;21.37;62.82
21781;BME280;52576;53.614;9.894;2023-08-21T09:20:49;102121.56;;;21.42;62.88
21781;BME280;52576;53.614;9.894;2023-08-21T09:22:53;102121.84;;;21.48;63.00
21781;BME280;52576;53.614;9.894;2023-08-21T09:25:00;102116.81;;;21.55;62.46
21781;BME280;52576;53.614;9.894;2023-08-21T09:27:16;102115.38;;;21.60;61.90
21781;BME280;52576;53.614;9.894;2023-08-21T09:29:19;102119.31;;;21.66;60.96
21781;BME280;52576;53.614;9.894;2023-08-21T09:31:23;102113.69;;;21.69;60.20
21781;BME280;52576;53.614;9.894;2023-08-21T09:33:26;102120.72;;;21.70;60.25
21781;BME280;52576;53.614;9.894;2023-08-21T09:35:32;102114.38;;;21.71;59.39
21781;BME280;52576;53.614;9.894;2023-08-21T09:37:37;102119.59;;;21.73;59.38
21781;BME280;52576;53.614;9.894;2023-08-21T09:39:40;102113.97;;;21.76;59.41
21781;BME280;52576;53.614;9.894;2023-08-21T09:41:54;102110.88;;;21.80;59.19
21781;BME280;52576;53.614;9.894;2023-08-21T09:43:58;102108.59;;;21.85;59.40
21781;BME280;52576;53.614;9.894;2023-08-21T09:46:01;102104.09;;;21.95;59.92
21781;BME280;52576;53.614;9.894;2023-08-21T09:48:07;102094.28;;;22.06;59.80
21781;BME280;52576;53.614;9.894;2023-08-21T09:50:10;102109.13;;;22.18;59.10
21781;BME280;52576;53.614;9.894;2023-08-21T09:52:13;102102.34;;;22.23;58.66
21781;BME280;52576;53.614;9.894;2023-08-21T09:54:36;102105.72;;;22.25;58.98
21781;BME280;52576;53.614;9.894;2023-08-21T09:56:40;102096.44;;;22.29;58.60
21781;BME280;52576;53.614;9.894;2023-08-21T09:58:43;102111.00;;;22.35;58.23
21781;BME280;52576;53.614;9.894;2023-08-21T10:00:48;102105.94;;;22.42;57.94
21781;BME280;52576;53.614;9.894;2023-08-21T10:02:53;102109.00;;;22.47;57.47
21781;BME280;52576;53.614;9.894;2023-08-21T10:04:57;102103.50;;;22.48;56.96
21781;BME280;52576;53.614;9.894;2023-08-21T10:07:02;102104.22;;;22.50;57.28
21781;BME280;52576;53.614;9.894;2023-08-21T10:09:06;102105.91;;;22.51;57.00
21781;BME280;52576;53.614;9.894;2023-08-21T10:11:11;102100.25;;;22.54;57.00
21781;BME280;52576;53.614;9.894;2023-08-21T10:13:15;102103.63;;;22.56;56.10
21781;BME280;52576;53.614;9.894;2023-08-21T10:15:18;102110.38;;;22.60;55.62
21781;BME280;52576;53.614;9.894;2023-08-21T10:17:22;102100.19;;;22.64;56.08
21781;BME280;52576;53.614;9.894;2023-08-21T10:19:30;102100.72;;;22.67;55.71
21781;BME280;52576;53.614;9.894;2023-08-21T10:21:35;102100.44;;;22.71;55.91
21781;BME280;52576;53.614;9.894;2023-08-21T10:23:39;102100.16;;;22.74;56.69
21781;BME280;52576;53.614;9.894;2023-08-21T10:25:47;102104.34;;;22.76;55.94
21781;BME280;52576;53.614;9.894;2023-08-21T10:27:52;102098.91;;;22.78;55.43
21781;BME280;52576;53.614;9.894;2023-08-21T10:29:57;102095.22;;;22.79;55.22
21781;BME280;52576;53.614;9.894;2023-08-21T10:32:01;102086.06;;;22.81;55.68
21781;BME280;52576;53.614;9.894;2023-08-21T10:34:06;102093.94;;;22.83;55.59
21781;BME280;52576;53.614;9.894;2023-08-21T10:36:10;102091.13;;;22.84;55.33
21781;BME280;52576;53.614;9.894;2023-08-21T10:38:14;102101.47;;;22.87;55.52
21781;BME280;52576;53.614;9.894;2023-08-21T10:40:22;102106.53;;;22.90;55.33
21781;BME280;52576;53.614;9.894;2023-08-21T10:42:37;102110.44;;;22.96;54.61
21781;BME280;52576;53.614;9.894;2023-08-21T10:44:50;102108.16;;;23.01;53.68
21781;BME280;52576;53.614;9.894;2023-08-21T10:47:14;102105.88;;;23.06;53.69
21781;BME280;52576;53.614;9.894;2023-08-21T10:49:17;102102.06;;;23.09;53.22